Terminal Aerodrome Forecast
Issued by NWS Blacksburg, VA

Current Version | Previous Version | Graphics & Text | Print | Product List | Glossary On
Versions: 1 2 3 4 5 6 7 8 9 10 11 12 13 14 15 16 17 18 19 20 21 22 23 24 25 26 27 28 29 30
142
FTUS41 KRNK 292335
TAFBLF
TAF
KBLF 292335Z 3000/3024 06003KT P6SM SCT080
     FM300200 09003KT P6SM BKN040
     FM301500 12004KT P6SM SCT100=

USA.gov is the U.S. government's official web portal to all federal, state and local government web resources and services.